KPIH/PIH METAR and TAF weather

Enter ICAO airport designator
Station Type Date Time Source
KPIH METAR 2019/06/16 04:53 UTC NOAA

KPIH 160453Z AUTO 19007KT 10SM CLR 13/02 A2998 RMK AO2 SLP113 T01280022


Station Type Date Time Source
KPIH Decoded METAR 2019/06/16 04:53 UTC NOAA

POCATELLO REGIONAL AIRPORT, ID, United States (KPIH) 42-55N 112-36W 1359M
Jun 16, 2019 - 12:53 AM EDT / 2019.06.16 0453 UTC
Wind: from the S (190 degrees) at 8 MPH (7 KT):0
Visibility: 10 mile(s):0
Sky conditions: clear
Temperature: 55.0 F (12.8 C)
Dew Point: 36.0 F (2.2 C)
Relative Humidity: 48%
Pressure (altimeter): 29.98 in. Hg (1015 hPa)
ob: KPIH 160453Z AUTO 19007KT 10SM CLR 13/02 A2998 RMK AO2 SLP113 T01280022
cycle: 5

Station Type Date Time Source
KPIH TAF 2019/06/15 22:12 UTC NOAA

TAF
AMD KPIH 152211Z 1522/1618 27010G20KT P6SM SCT070
FM160300 20008KT P6SM SKC

Example: see airport list